D/T METAR WX W/DIR W/SPE G/SPE TEMP DEWP
6/06/20 11:50 EGPL 061050Z 36018KT 7000 -RADZ FEW006 BKN009 10/09 Q1002 -RA -DZ N (360°) 20.7mph 10°C 9°C
6/06/20 11:20 EGPL 061020Z 35018KT 7000 -DZ FEW006 BKN009 10/09 Q1001 -DZ N (350°) 20.7mph 10°C 9°C
6/06/20 10:50 EGPL 060950Z AUTO 35018KT 7000 -RA OVC008/// 10/09 Q1001 -RA N (350°) 20.7mph 10°C 9°C
6/06/20 10:20 EGPL 060920Z AUTO 35019KT 9999 BKN008/// OVC015/// 10/09 Q1001 N (350°) 21.9mph 10°C 9°C
6/06/20 09:50 EGPL 060850Z AUTO 36022KT 9999 OVC009/// 10/09 Q1001 N (360°) 25.3mph 10°C 9°C
6/06/20 09:20 EGPL 060820Z AUTO 35019KT 7000 BKN008/// OVC013/// 10/09 Q1000 N (350°) 21.9mph 10°C 9°C
6/06/20 08:50 EGPL 060750Z AUTO 35022KT 6000 SCT008/// OVC013/// 10/09 Q1000 N (350°) 25.3mph 10°C 9°C
6/06/20 08:20 EGPL 060720Z 35022KT 6000 -DZ SCT008 BKN010 10/09 Q1000 -DZ N (350°) 25.3mph 10°C 9°C
6/06/20 07:50 EGPL 060650Z 35021KT 6000 -DZ SCT008 BKN010 10/08 Q0999 -DZ N (350°) 24.2mph 10°C 8°C
6/06/20 07:20 EGPL 060620Z 35024G35KT 7000 -DZ SCT006 BKN008 10/08 Q0999 -DZ N (350°) 27.6mph 40.3mph 10°C 8°C
6/06/20 06:50 EGPL 060550Z AUTO 35022G32KT 9999 OVC010/// 10/08 Q0999 N (350°) 25.3mph 36.8mph 10°C 8°C
6/06/20 06:20 EGPL 060520Z AUTO 35025G35KT 9000 OVC010/// 10/08 Q0999 N (350°) 28.8mph 40.3mph 10°C 8°C
6/06/20 05:50 EGPL 060450Z AUTO 35023KT 9999 OVC010/// 10/08 Q0999 N (350°) 26.5mph 10°C 8°C
6/06/20 05:20 EGPL 060420Z AUTO 35022G32KT 9000 OVC010/// 10/08 Q0998 N (350°) 25.3mph 36.8mph 10°C 8°C
6/06/20 04:50 EGPL 060350Z AUTO 35024KT 8000 BKN010/// OVC018/// 10/08 Q0998 N (350°) 27.6mph 10°C 8°C
6/06/20 04:20 EGPL 060320Z AUTO 35024KT 9999 BKN009/// OVC018/// 10/08 Q0998 N (350°) 27.6mph 10°C 8°C
6/06/20 03:50 EGPL 060250Z AUTO 35023KT 9999 BKN008/// OVC014/// 10/08 Q0998 N (350°) 26.5mph 10°C 8°C
6/06/20 03:20 EGPL 060220Z AUTO 35023KT 8000 BKN006/// OVC020/// 09/08 Q0998 N (350°) 26.5mph 9°C 8°C
6/06/20 02:50 EGPL 060150Z AUTO 35024G34KT 7000 BKN008/// BKN012/// OVC019/// 10/08 Q0997 N (350°) 27.6mph 39.1mph 10°C 8°C
6/06/20 02:20 EGPL 060120Z AUTO 35024G34KT 7000 BKN006/// OVC015/// 10/08 Q0997 N (350°) 27.6mph 39.1mph 10°C 8°C
6/06/20 01:50 EGPL 060050Z AUTO 35027G38KT 9999 BKN010/// OVC015/// 10/08 Q0997 N (350°) 31.1mph 43.7mph 10°C 8°C
6/06/20 01:20 EGPL 060020Z AUTO 35027G37KT 9999 OVC010/// 10/08 Q0997 N (350°) 31.1mph 42.6mph 10°C 8°C
6/06/20 00:50 EGPL 052350Z AUTO 35025KT 9999 OVC011/// 10/08 Q0997 N (350°) 28.8mph 10°C 8°C
6/06/20 00:20 EGPL 052320Z AUTO 35028KT 9999 -RA OVC010/// 10/09 Q0997 -RA N (350°) 32.2mph 10°C 9°C
5/06/20 23:50 EGPL 052250Z AUTO 35025KT 8000 -RA FEW006/// BKN009/// OVC013/// 10/09 Q0997 RERA -RA N (350°) 28.8mph 10°C 9°C
5/06/20 23:20 EGPL 052220Z AUTO 35023KT 3600 RA FEW005/// BKN009/// OVC014/// 10/09 Q0996 RA N (350°) 26.5mph 10°C 9°C
5/06/20 22:50 EGPL 052150Z AUTO 34025KT 9000 -RA OVC007/// 10/09 Q0996 -RA NNW (340°) 28.8mph 10°C 9°C
5/06/20 22:20 EGPL 052120Z AUTO 34027KT 7000 BKN006/// OVC009/// 09/08 Q0996 NNW (340°) 31.1mph 9°C 8°C
5/06/20 21:50 EGPL 052050Z AUTO 34029G40KT 5000 -RA SCT006/// BKN010/// OVC020/// 09/08 Q0996 RERA -RA NNW (340°) 33.4mph 46.0mph 9°C 8°C
5/06/20 21:20 EGPL 052020Z AUTO 33028G39KT 8000 -RA BKN010/// OVC016/// 09/08 Q0996 -RA NNW (330°) 32.2mph 44.9mph 9°C 8°C
5/06/20 20:50 EGPL 051950Z AUTO 33028G38KT 9000 -RA BKN014/// BKN019/// OVC042/// 09/07 Q0997 -RA NNW (330°) 32.2mph 43.7mph 9°C 7°C
5/06/20 20:20 EGPL 051920Z AUTO 33030G40KT 9999 -RA SCT015/// BKN025/// 09/07 Q0997 -RA NNW (330°) 34.5mph 46.0mph 9°C 7°C
5/06/20 19:50 EGPL 051850Z AUTO 33031G41KT 8000 -RA SCT016/// BKN023/// BKN027/// 09/06 Q0997 -RA NNW (330°) 35.7mph 47.2mph 9°C 6°C
5/06/20 19:20 EGPL 051820Z AUTO 33031KT 7000 -RA BKN017/// BKN028/// BKN039/// 08/06 Q0997 -RA NNW (330°) 35.7mph 8°C 6°C
5/06/20 18:50 EGPL 051750Z AUTO 33027G38KT 9999 FEW006/// BKN017/// BKN032/// 09/06 Q0997 NNW (330°) 31.1mph 43.7mph 9°C 6°C
5/06/20 18:20 EGPL 051720Z AUTO 33032KT 9999 BKN019/// BKN036/// 09/06 Q0998 NNW (330°) 36.8mph 9°C 6°C
5/06/20 17:50 EGPL 051650Z AUTO 34029KT 9999 SCT015/// BKN031/// BKN047/// 09/06 Q0998 RERA NNW (340°) 33.4mph 9°C 6°C
5/06/20 17:20 EGPL 051620Z AUTO 33029KT 9999 BKN019/// BKN035/// 09/06 Q0998 NNW (330°) 33.4mph 9°C 6°C
5/06/20 16:50 EGPL 051550Z AUTO 33028G38KT 9999 BKN021/// BKN040/// 10/06 Q0998 NNW (330°) 32.2mph 43.7mph 10°C 6°C
5/06/20 16:20 EGPL 051520Z AUTO 33029KT 9999 SCT024/// BKN043/// 10/05 Q0999 NNW (330°) 33.4mph 10°C 5°C
5/06/20 15:50 EGPL 051450Z AUTO 32030KT 9999 SCT025/// BKN032/// 10/05 Q0999 NW (320°) 34.5mph 10°C 5°C
5/06/20 15:20 EGPL 051420Z 32027G37KT 9999 VCSH SCT025 09/06 Q0999 VCSH NW (320°) 31.1mph 42.6mph 9°C 6°C
5/06/20 14:50 EGPL 051350Z 33030KT 9999 VCSH SCT025 10/04 Q0999 VCSH NNW (330°) 34.5mph 10°C 4°C
5/06/20 14:20 EGPL 051320Z AUTO 33028G38KT 9999 SCT025/// 10/05 Q1000 NNW (330°) 32.2mph 43.7mph 10°C 5°C
5/06/20 13:50 EGPL 051250Z AUTO 34030G41KT 9999 BKN020/// BKN035/// BKN045/// 10/05 Q1000 RERA NNW (340°) 34.5mph 47.2mph 10°C 5°C
5/06/20 13:20 EGPL 051220Z AUTO 35024G35KT 9999 -RA BKN023/// BKN036/// 09/05 Q1000 -RA N (350°) 27.6mph 40.3mph 9°C 5°C
5/06/20 12:50 EGPL 051150Z 34027G38KT 9999 VCSH SCT025 10/05 Q1000 VCSH NNW (340°) 31.1mph 43.7mph 10°C 5°C
5/06/20 12:20 EGPL 051120Z 34026KT 9999 VCSH SCT025 09/04 Q1000 VCSH NNW (340°) 29.9mph 9°C 4°C
5/06/20 11:50 EGPL 051050Z AUTO 34028KT 9999 SCT025/// BKN033/// 10/05 Q1000 NNW (340°) 32.2mph 10°C 5°C
5/06/20 11:20 EGPL 051020Z AUTO 34027KT 9999 SCT024/// BKN031/// BKN049/// 09/04 Q1000 NNW (340°) 31.1mph 9°C 4°C
5/06/20 10:50 EGPL 050950Z AUTO 35020KT 9999 SCT026/// SCT031/// BKN038/// 09/05 Q1000 N (350°) 23.0mph 9°C 5°C
5/06/20 10:20 EGPL 050920Z AUTO 34025G36KT 9999 BKN025/// BKN046/// 09/04 Q1000 NNW (340°) 28.8mph 41.4mph 9°C 4°C
5/06/20 09:50 EGPL 050850Z AUTO 33023KT 9999 SCT026/// BKN040/// BKN049/// 09/05 Q1000 NNW (330°) 26.5mph 9°C 5°C
5/06/20 09:20 EGPL 050820Z AUTO 34022G32KT 9999 FEW024/// SCT035/// 09/05 Q1000 NNW (340°) 25.3mph 36.8mph 9°C 5°C
5/06/20 08:50 EGPL 050750Z AUTO 36016KT 9999 BKN025/// BKN033/// 09/05 Q1000 N (360°) 18.4mph 9°C 5°C
5/06/20 08:20 EGPL 050720Z 34022KT 9999 FEW008 SCT024 09/06 Q1001 NNW (340°) 25.3mph 9°C 6°C
5/06/20 07:50 EGPL 050650Z 34023KT 9999 VCSH FEW024 SCT034 09/04 Q1000 VCSH NNW (340°) 26.5mph 9°C 4°C
5/06/20 07:20 EGPL 050620Z 36020KT 9999 VCSH FEW027 SCT036 07/04 Q1000 VCSH N (360°) 23.0mph 7°C 4°C
5/06/20 06:50 EGPL 050550Z AUTO 34017KT 9999 SCT026/// BKN035/// BKN045/// 08/05 Q1000 NNW (340°) 19.6mph 8°C 5°C
5/06/20 06:20 EGPL 050520Z AUTO 34017KT 9999 FEW041/// 09/04 Q1001 NNW (340°) 19.6mph 9°C 4°C
5/06/20 05:50 EGPL 050450Z AUTO 34016KT 9999 NCD 08/04 Q1001 NNW (340°) 18.4mph 8°C 4°C
5/06/20 05:20 EGPL 050420Z AUTO 34016KT 9999 SCT036/// 08/04 Q1001 NNW (340°) 18.4mph 8°C 4°C
5/06/20 04:50 EGPL 050350Z AUTO 35016KT 9999 FEW027/// SCT039/// 08/04 Q1001 N (350°) 18.4mph 8°C 4°C
5/06/20 04:20 EGPL 050320Z AUTO 34014KT 9999 SCT032/// BKN042/// 09/04 Q1001 NNW (340°) 16.1mph 9°C 4°C
5/06/20 03:50 EGPL 050250Z AUTO 35015KT 9999 FEW036/// 08/04 Q1001 N (350°) 17.3mph 8°C 4°C
5/06/20 03:20 EGPL 050220Z AUTO 36009KT 9999 SCT026/// BKN038/// 08/05 Q1001 N (360°) 10.4mph 8°C 5°C
5/06/20 02:50 EGPL 050150Z AUTO 35010KT 9999 FEW005/// SCT026/// BKN041/// 08/05 Q1001 N (350°) 11.5mph 8°C 5°C
5/06/20 02:20 EGPL 050120Z AUTO 34011KT 9999 SCT037/// BKN049/// 08/04 Q1002 NNW (340°) 12.7mph 8°C 4°C
5/06/20 01:50 EGPL 050050Z AUTO 35013KT 9999 FEW035/// SCT042/// 08/04 Q1002 N (350°) 15.0mph 8°C 4°C
5/06/20 01:20 EGPL 050020Z AUTO 35013KT 9999 FEW032/// SCT041/// 08/04 Q1002 N (350°) 15.0mph 8°C 4°C
5/06/20 00:50 EGPL 042350Z AUTO 34011KT 9999 FEW031/// BKN042/// 08/06 Q1002 NNW (340°) 12.7mph 8°C 6°C
5/06/20 00:20 EGPL 042320Z AUTO 34013G27KT 5000 -RA SCT004/// SCT022/// BKN033/// 08/05 Q1002 RERA -RA NNW (340°) 15.0mph 31.1mph 8°C 5°C
4/06/20 23:50 EGPL 042250Z AUTO 34011KT 9999 FEW010/// SCT031/// 08/06 Q1003 RERA NNW (340°) 12.7mph 8°C 6°C
4/06/20 23:20 EGPL 042220Z AUTO 33016KT 9999 SCT040/// 09/05 Q1003 NNW (330°) 18.4mph 9°C 5°C
4/06/20 22:50 EGPL 042150Z AUTO 34014KT 9999 FEW029/// SCT039/// 09/05 Q1003 NNW (340°) 16.1mph 9°C 5°C
4/06/20 22:20 EGPL 042120Z AUTO 34011KT 9999 FEW025/// OVC042/// 09/05 Q1003 NNW (340°) 12.7mph 9°C 5°C
4/06/20 21:50 EGPL 042050Z AUTO 35011G22KT 9999 SCT025/// BKN030/// BKN043/// 10/05 Q1003 N (350°) 12.7mph 25.3mph 10°C 5°C
4/06/20 21:20 EGPL 042020Z AUTO 36011KT 9999 SCT025/// BKN045/// 10/05 Q1003 N (360°) 12.7mph 10°C 5°C
4/06/20 20:50 EGPL 041950Z AUTO 35012KT 9999 BKN032/// BKN047/// 10/04 Q1003 N (350°) 13.8mph 10°C 4°C
4/06/20 20:20 EGPL 041920Z AUTO 36014KT 9999 FEW026/// SCT032/// BKN043/// 09/06 Q1003 N (360°) 16.1mph 9°C 6°C
4/06/20 19:50 EGPL 041850Z AUTO 35014KT 9999 SCT047/// 10/04 Q1003 N (350°) 16.1mph 10°C 4°C
4/06/20 19:20 EGPL 041820Z AUTO 01016KT 9999 NCD 11/05 Q1003 N (10°) 18.4mph 11°C 5°C
4/06/20 18:50 EGPL 041750Z AUTO 36015KT 9999 NCD 11/05 Q1003 N (360°) 17.3mph 11°C 5°C
4/06/20 18:20 EGPL 041720Z AUTO 36014KT 9999 NCD 12/04 Q1003 N (360°) 16.1mph 12°C 4°C
4/06/20 17:50 EGPL 041650Z AUTO 01014KT 9999 SCT031/// BKN042/// 12/05 Q1003 N (10°) 16.1mph 12°C 5°C
4/06/20 17:20 EGPL 041620Z AUTO 06010KT 020V090 9999 FEW034/// 13/05 Q1004 ENE (60°) 11.5mph 13°C 5°C
4/06/20 16:50 EGPL 041550Z AUTO 03008KT 9999 SCT026/// BKN036/// BKN047/// 12/06 Q1004 NNE (30°) 9.2mph 12°C 6°C
4/06/20 16:20 EGPL 041520Z AUTO 06012KT 9999 SCT025/// BKN032/// 12/06 Q1003 ENE (60°) 13.8mph 12°C 6°C
4/06/20 15:50 EGPL 041450Z AUTO 04010KT 9999 BKN026/// OVC047/// 12/06 Q1003 NE (40°) 11.5mph 12°C 6°C
4/06/20 15:20 EGPL 041420Z 05011KT 9999 FEW018 BKN025 11/07 Q1003 NE (50°) 12.7mph 11°C 7°C
4/06/20 14:50 EGPL 041350Z 07012KT 9999 FEW018 BKN025 13/07 Q1003 ENE (70°) 13.8mph 13°C 7°C
4/06/20 14:20 EGPL 041320Z 36015KT 9999 FEW024 BKN048 12/06 Q1004 N (360°) 17.3mph 12°C 6°C
4/06/20 13:50 EGPL 041250Z AUTO 35014KT 9999 FEW018/// BKN038/// OVC046/// 12/06 Q1004 N (350°) 16.1mph 12°C 6°C
4/06/20 13:20 EGPL 041220Z AUTO 36014KT 9999 SCT022/// BKN041/// 12/07 Q1004 N (360°) 16.1mph 12°C 7°C
4/06/20 12:50 EGPL 041150Z AUTO 35014KT 9999 BKN022/// BKN031/// BKN040/// 12/07 Q1004 N (350°) 16.1mph 12°C 7°C
4/06/20 12:20 EGPL 041120Z AUTO 35015KT 9999 SCT022/// BKN040/// 12/07 Q1004 N (350°) 17.3mph 12°C 7°C